sensor_id;sensor_type;location;lat;lon;timestamp;temperature;humidity
8188;DHT22;4135;49.184;9.722;2022-12-07T00:00:06;14.20;49.40
8188;DHT22;4135;49.184;9.722;2022-12-07T00:02:35;14.20;49.40
8188;DHT22;4135;49.184;9.722;2022-12-07T00:05:05;14.20;49.40
8188;DHT22;4135;49.184;9.722;2022-12-07T00:07:35;14.20;49.30
8188;DHT22;4135;49.184;9.722;2022-12-07T00:10:05;14.20;49.30
8188;DHT22;4135;49.184;9.722;2022-12-07T00:12:34;14.20;49.30
8188;DHT22;4135;49.184;9.722;2022-12-07T00:15:04;14.20;49.30
8188;DHT22;4135;49.184;9.722;2022-12-07T00:17:34;14.20;49.40
8188;DHT22;4135;49.184;9.722;2022-12-07T00:20:04;14.20;49.40
8188;DHT22;4135;49.184;9.722;2022-12-07T00:22:34;14.20;49.40
8188;DHT22;4135;49.184;9.722;2022-12-07T00:25:04;14.20;49.50
8188;DHT22;4135;49.184;9.722;2022-12-07T00:27:33;14.20;49.40
8188;DHT22;4135;49.184;9.722;2022-12-07T00:30:03;14.20;49.40
8188;DHT22;4135;49.184;9.722;2022-12-07T00:32:33;14.20;49.30
8188;DHT22;4135;49.184;9.722;2022-12-07T00:35:03;14.20;49.30
8188;DHT22;4135;49.184;9.722;2022-12-07T00:37:32;14.20;49.40
8188;DHT22;4135;49.184;9.722;2022-12-07T00:40:02;14.20;49.40
8188;DHT22;4135;49.184;9.722;2022-12-07T00:42:33;14.10;49.30
8188;DHT22;4135;49.184;9.722;2022-12-07T00:45:02;14.20;49.40
8188;DHT22;4135;49.184;9.722;2022-12-07T00:47:32;14.10;49.20
8188;DHT22;4135;49.184;9.722;2022-12-07T00:50:02;14.10;49.20
8188;DHT22;4135;49.184;9.722;2022-12-07T00:52:31;14.10;49.20
8188;DHT22;4135;49.184;9.722;2022-12-07T00:55:01;14.10;49.20
8188;DHT22;4135;49.184;9.722;2022-12-07T00:57:31;14.20;49.30
8188;DHT22;4135;49.184;9.722;2022-12-07T01:00:00;14.10;49.20
8188;DHT22;4135;49.184;9.722;2022-12-07T01:02:30;14.10;49.20
8188;DHT22;4135;49.184;9.722;2022-12-07T01:05:00;14.20;49.30
8188;DHT22;4135;49.184;9.722;2022-12-07T01:07:29;14.10;49.80
8188;DHT22;4135;49.184;9.722;2022-12-07T01:09:59;14.20;49.30
8188;DHT22;4135;49.184;9.722;2022-12-07T01:12:28;14.10;49.10
8188;DHT22;4135;49.184;9.722;2022-12-07T01:14:58;14.10;49.20
8188;DHT22;4135;49.184;9.722;2022-12-07T01:17:28;14.20;49.30
8188;DHT22;4135;49.184;9.722;2022-12-07T01:19:57;14.10;49.20
8188;DHT22;4135;49.184;9.722;2022-12-07T01:22:27;14.10;49.20
8188;DHT22;4135;49.184;9.722;2022-12-07T01:24:57;14.10;49.20
8188;DHT22;4135;49.184;9.722;2022-12-07T01:27:26;14.10;49.20
8188;DHT22;4135;49.184;9.722;2022-12-07T01:29:56;14.10;49.20
8188;DHT22;4135;49.184;9.722;2022-12-07T01:32:25;14.10;49.20
8188;DHT22;4135;49.184;9.722;2022-12-07T01:34:55;14.10;49.20
8188;DHT22;4135;49.184;9.722;2022-12-07T01:37:24;14.10;49.20
8188;DHT22;4135;49.184;9.722;2022-12-07T01:39:54;14.10;49.20
8188;DHT22;4135;49.184;9.722;2022-12-07T01:42:23;14.10;49.20
8188;DHT22;4135;49.184;9.722;2022-12-07T01:47:53;14.10;49.20
8188;DHT22;4135;49.184;9.722;2022-12-07T01:50:26;14.10;49.10
8188;DHT22;4135;49.184;9.722;2022-12-07T01:52:59;14.10;49.10
8188;DHT22;4135;49.184;9.722;2022-12-07T01:55:30;14.10;49.10
8188;DHT22;4135;49.184;9.722;2022-12-07T01:57:59;14.10;49.10
8188;DHT22;4135;49.184;9.722;2022-12-07T02:00:29;14.10;49.10
8188;DHT22;4135;49.184;9.722;2022-12-07T02:03:06;14.10;49.10
8188;DHT22;4135;49.184;9.722;2022-12-07T02:05:38;14.10;49.10
8188;DHT22;4135;49.184;9.722;2022-12-07T02:08:10;14.10;49.10
8188;DHT22;4135;49.184;9.722;2022-12-07T02:10:41;14.10;49.10
8188;DHT22;4135;49.184;9.722;2022-12-07T02:13:21;14.10;49.10
8188;DHT22;4135;49.184;9.722;2022-12-07T02:21:51;14.10;49.10
8188;DHT22;4135;49.184;9.722;2022-12-07T02:25:04;14.10;49.10
8188;DHT22;4135;49.184;9.722;2022-12-07T02:27:43;14.10;49.00
8188;DHT22;4135;49.184;9.722;2022-12-07T02:30:19;14.10;49.10
8188;DHT22;4135;49.184;9.722;2022-12-07T02:33:02;14.10;49.10
8188;DHT22;4135;49.184;9.722;2022-12-07T02:35:59;14.10;49.20
8188;DHT22;4135;49.184;9.722;2022-12-07T02:38:47;14.00;49.00
8188;DHT22;4135;49.184;9.722;2022-12-07T02:41:32;14.00;49.10
8188;DHT22;4135;49.184;9.722;2022-12-07T02:44:07;14.00;49.10
8188;DHT22;4135;49.184;9.722;2022-12-07T02:46:56;14.10;49.20
8188;DHT22;4135;49.184;9.722;2022-12-07T02:49:28;14.10;49.20
8188;DHT22;4135;49.184;9.722;2022-12-07T02:51:58;14.00;49.10
8188;DHT22;4135;49.184;9.722;2022-12-07T02:54:27;14.00;49.10
8188;DHT22;4135;49.184;9.722;2022-12-07T03:00:04;14.00;49.00
8188;DHT22;4135;49.184;9.722;2022-12-07T03:16:06;14.00;49.10
8188;DHT22;4135;49.184;9.722;2022-12-07T03:18:41;14.00;49.00
8188;DHT22;4135;49.184;9.722;2022-12-07T03:21:17;14.10;49.10
8188;DHT22;4135;49.184;9.722;2022-12-07T03:23:51;14.00;49.00
8188;DHT22;4135;49.184;9.722;2022-12-07T03:26:24;14.00;49.00
8188;DHT22;4135;49.184;9.722;2022-12-07T03:28:59;14.00;49.10
8188;DHT22;4135;49.184;9.722;2022-12-07T03:31:33;14.00;49.00
8188;DHT22;4135;49.184;9.722;2022-12-07T03:34:20;14.10;49.10
8188;DHT22;4135;49.184;9.722;2022-12-07T03:37:00;14.00;49.10
8188;DHT22;4135;49.184;9.722;2022-12-07T03:42:05;14.00;49.10
8188;DHT22;4135;49.184;9.722;2022-12-07T03:44:38;14.00;49.10
8188;DHT22;4135;49.184;9.722;2022-12-07T03:50:43;14.00;49.00
8188;DHT22;4135;49.184;9.722;2022-12-07T03:53:09;14.10;49.10
8188;DHT22;4135;49.184;9.722;2022-12-07T03:55:43;14.10;49.20
8188;DHT22;4135;49.184;9.722;2022-12-07T03:58:16;14.00;49.60
8188;DHT22;4135;49.184;9.722;2022-12-07T04:00:47;14.00;49.10
8188;DHT22;4135;49.184;9.722;2022-12-07T04:03:17;14.10;49.10
8188;DHT22;4135;49.184;9.722;2022-12-07T04:05:47;14.10;49.10
8188;DHT22;4135;49.184;9.722;2022-12-07T04:08:17;14.10;49.10
8188;DHT22;4135;49.184;9.722;2022-12-07T04:10:46;14.00;49.00
8188;DHT22;4135;49.184;9.722;2022-12-07T04:13:16;14.10;49.10
8188;DHT22;4135;49.184;9.722;2022-12-07T04:15:45;14.00;49.00
8188;DHT22;4135;49.184;9.722;2022-12-07T04:18:15;14.10;49.10
8188;DHT22;4135;49.184;9.722;2022-12-07T04:20:45;14.00;49.00
8188;DHT22;4135;49.184;9.722;2022-12-07T04:23:15;14.00;49.00
8188;DHT22;4135;49.184;9.722;2022-12-07T04:25:48;14.00;49.00
8188;DHT22;4135;49.184;9.722;2022-12-07T04:28:17;14.00;49.20
8188;DHT22;4135;49.184;9.722;2022-12-07T04:30:47;14.00;49.00
8188;DHT22;4135;49.184;9.722;2022-12-07T04:33:16;14.00;49.00
8188;DHT22;4135;49.184;9.722;2022-12-07T04:35:46;14.00;49.00
8188;DHT22;4135;49.184;9.722;2022-12-07T04:38:15;14.00;49.00
8188;DHT22;4135;49.184;9.722;2022-12-07T04:40:45;14.00;49.00
8188;DHT22;4135;49.184;9.722;2022-12-07T04:43:14;14.00;49.00
8188;DHT22;4135;49.184;9.722;2022-12-07T04:45:48;14.00;49.00
8188;DHT22;4135;49.184;9.722;2022-12-07T04:48:17;15.10;49.90
8188;DHT22;4135;49.184;9.722;2022-12-07T04:50:48;14.10;49.00
8188;DHT22;4135;49.184;9.722;2022-12-07T04:53:21;14.00;48.90
8188;DHT22;4135;49.184;9.722;2022-12-07T04:55:50;14.00;48.90
8188;DHT22;4135;49.184;9.722;2022-12-07T04:58:20;13.60;48.60
8188;DHT22;4135;49.184;9.722;2022-12-07T05:00:49;14.00;48.90
8188;DHT22;4135;49.184;9.722;2022-12-07T05:03:19;14.00;49.00
8188;DHT22;4135;49.184;9.722;2022-12-07T05:05:48;14.00;48.90
8188;DHT22;4135;49.184;9.722;2022-12-07T05:08:18;14.00;48.90
8188;DHT22;4135;49.184;9.722;2022-12-07T05:10:49;14.00;48.90
8188;DHT22;4135;49.184;9.722;2022-12-07T05:13:18;14.00;48.90
8188;DHT22;4135;49.184;9.722;2022-12-07T05:15:48;14.00;48.90
8188;DHT22;4135;49.184;9.722;2022-12-07T05:18:17;14.00;49.40
8188;DHT22;4135;49.184;9.722;2022-12-07T05:20:47;14.00;48.80
8188;DHT22;4135;49.184;9.722;2022-12-07T05:23:17;14.00;48.80
8188;DHT22;4135;49.184;9.722;2022-12-07T05:25:47;14.00;48.80
8188;DHT22;4135;49.184;9.722;2022-12-07T05:28:16;14.00;48.80
8188;DHT22;4135;49.184;9.722;2022-12-07T05:30:46;14.00;48.80
8188;DHT22;4135;49.184;9.722;2022-12-07T05:33:15;14.00;48.70
8188;DHT22;4135;49.184;9.722;2022-12-07T05:35:45;14.00;48.70
8188;DHT22;4135;49.184;9.722;2022-12-07T05:38:14;14.00;48.70
8188;DHT22;4135;49.184;9.722;2022-12-07T05:40:44;14.00;48.70
8188;DHT22;4135;49.184;9.722;2022-12-07T05:43:14;14.00;48.70
8188;DHT22;4135;49.184;9.722;2022-12-07T05:45:43;14.00;48.60
8188;DHT22;4135;49.184;9.722;2022-12-07T05:48:13;14.00;48.60
8188;DHT22;4135;49.184;9.722;2022-12-07T05:50:42;14.00;48.60
8188;DHT22;4135;49.184;9.722;2022-12-07T05:53:12;14.00;48.60
8188;DHT22;4135;49.184;9.722;2022-12-07T05:55:41;14.00;48.60
8188;DHT22;4135;49.184;9.722;2022-12-07T05:58:11;14.00;48.60
8188;DHT22;4135;49.184;9.722;2022-12-07T06:00:59;14.00;48.60
8188;DHT22;4135;49.184;9.722;2022-12-07T06:03:29;14.00;48.60
8188;DHT22;4135;49.184;9.722;2022-12-07T06:05:58;13.90;48.50
8188;DHT22;4135;49.184;9.722;2022-12-07T06:08:27;14.00;48.60
8188;DHT22;4135;49.184;9.722;2022-12-07T06:10:57;14.00;48.60
8188;DHT22;4135;49.184;9.722;2022-12-07T06:13:46;14.00;48.60
8188;DHT22;4135;49.184;9.722;2022-12-07T06:16:15;14.00;48.60
8188;DHT22;4135;49.184;9.722;2022-12-07T06:18:45;13.90;48.60
8188;DHT22;4135;49.184;9.722;2022-12-07T06:21:14;13.90;48.60
8188;DHT22;4135;49.184;9.722;2022-12-07T06:23:44;13.90;48.60
8188;DHT22;4135;49.184;9.722;2022-12-07T06:26:14;13.90;48.60
8188;DHT22;4135;49.184;9.722;2022-12-07T06:28:43;13.90;48.70
8188;DHT22;4135;49.184;9.722;2022-12-07T06:31:13;13.90;48.70
8188;DHT22;4135;49.184;9.722;2022-12-07T06:33:43;13.90;48.70
8188;DHT22;4135;49.184;9.722;2022-12-07T06:36:13;13.90;48.80
8188;DHT22;4135;49.184;9.722;2022-12-07T06:38:42;14.00;49.50
8188;DHT22;4135;49.184;9.722;2022-12-07T06:41:12;14.10;50.70
8188;DHT22;4135;49.184;9.722;2022-12-07T06:43:41;14.20;51.70
8188;DHT22;4135;49.184;9.722;2022-12-07T06:46:11;14.30;52.20
8188;DHT22;4135;49.184;9.722;2022-12-07T06:48:41;14.30;52.70
8188;DHT22;4135;49.184;9.722;2022-12-07T06:51:11;14.30;52.40
8188;DHT22;4135;49.184;9.722;2022-12-07T06:53:40;14.40;52.20
8188;DHT22;4135;49.184;9.722;2022-12-07T06:56:10;14.40;52.30
8188;DHT22;4135;49.184;9.722;2022-12-07T06:58:40;14.40;51.80
8188;DHT22;4135;49.184;9.722;2022-12-07T07:01:14;14.40;51.80
8188;DHT22;4135;49.184;9.722;2022-12-07T07:03:45;14.40;51.60
8188;DHT22;4135;49.184;9.722;2022-12-07T07:06:15;14.50;51.70
8188;DHT22;4135;49.184;9.722;2022-12-07T07:08:44;14.50;51.40
8188;DHT22;4135;49.184;9.722;2022-12-07T07:11:14;14.50;51.40
8188;DHT22;4135;49.184;9.722;2022-12-07T07:13:44;14.50;51.30
8188;DHT22;4135;49.184;9.722;2022-12-07T07:16:14;14.50;51.40
8188;DHT22;4135;49.184;9.722;2022-12-07T07:18:44;14.50;51.00
8188;DHT22;4135;49.184;9.722;2022-12-07T07:21:13;14.50;51.00
8188;DHT22;4135;49.184;9.722;2022-12-07T07:23:43;14.60;51.10
8188;DHT22;4135;49.184;9.722;2022-12-07T07:26:12;14.60;51.00
8188;DHT22;4135;49.184;9.722;2022-12-07T07:28:42;14.60;50.50
8188;DHT22;4135;49.184;9.722;2022-12-07T07:31:11;14.60;50.40
8188;DHT22;4135;49.184;9.722;2022-12-07T07:33:41;14.60;50.20
8188;DHT22;4135;49.184;9.722;2022-12-07T07:36:10;14.60;50.10
8188;DHT22;4135;49.184;9.722;2022-12-07T07:38:40;14.60;50.10
8188;DHT22;4135;49.184;9.722;2022-12-07T07:41:09;14.60;50.00
8188;DHT22;4135;49.184;9.722;2022-12-07T07:43:39;14.60;49.90
8188;DHT22;4135;49.184;9.722;2022-12-07T07:46:08;14.60;49.90
8188;DHT22;4135;49.184;9.722;2022-12-07T07:48:38;14.60;50.00
8188;DHT22;4135;49.184;9.722;2022-12-07T07:51:08;14.60;49.70
8188;DHT22;4135;49.184;9.722;2022-12-07T07:53:37;14.60;50.00
8188;DHT22;4135;49.184;9.722;2022-12-07T07:56:07;14.60;50.00
8188;DHT22;4135;49.184;9.722;2022-12-07T07:58:36;14.70;50.10
8188;DHT22;4135;49.184;9.722;2022-12-07T08:01:08;14.70;50.80
8188;DHT22;4135;49.184;9.722;2022-12-07T08:03:38;14.70;49.90
8188;DHT22;4135;49.184;9.722;2022-12-07T08:06:07;14.70;49.90
8188;DHT22;4135;49.184;9.722;2022-12-07T08:08:37;14.70;49.80
8188;DHT22;4135;49.184;9.722;2022-12-07T08:11:07;14.70;49.70
8188;DHT22;4135;49.184;9.722;2022-12-07T08:13:37;14.70;49.60
8188;DHT22;4135;49.184;9.722;2022-12-07T08:16:08;14.70;49.50
8188;DHT22;4135;49.184;9.722;2022-12-07T08:18:39;14.70;49.40
8188;DHT22;4135;49.184;9.722;2022-12-07T08:21:11;14.70;49.40
8188;DHT22;4135;49.184;9.722;2022-12-07T08:23:41;14.70;49.50
8188;DHT22;4135;49.184;9.722;2022-12-07T08:26:13;14.70;49.30
8188;DHT22;4135;49.184;9.722;2022-12-07T08:28:44;14.70;49.30
8188;DHT22;4135;49.184;9.722;2022-12-07T08:31:16;14.70;49.20
8188;DHT22;4135;49.184;9.722;2022-12-07T08:33:47;14.70;49.40
8188;DHT22;4135;49.184;9.722;2022-12-07T08:36:17;14.70;49.10
8188;DHT22;4135;49.184;9.722;2022-12-07T08:38:47;14.80;49.30
8188;DHT22;4135;49.184;9.722;2022-12-07T08:41:17;14.70;49.10
8188;DHT22;4135;49.184;9.722;2022-12-07T08:43:46;14.80;48.60
8188;DHT22;4135;49.184;9.722;2022-12-07T08:46:33;14.80;49.10
8188;DHT22;4135;49.184;9.722;2022-12-07T08:49:14;14.80;49.10
8188;DHT22;4135;49.184;9.722;2022-12-07T08:51:45;14.80;49.00
8188;DHT22;4135;49.184;9.722;2022-12-07T08:54:17;14.80;48.90
8188;DHT22;4135;49.184;9.722;2022-12-07T08:56:47;14.80;48.90
8188;DHT22;4135;49.184;9.722;2022-12-07T08:59:17;14.80;48.90
8188;DHT22;4135;49.184;9.722;2022-12-07T09:01:48;14.80;49.00
8188;DHT22;4135;49.184;9.722;2022-12-07T09:04:18;14.80;48.90
8188;DHT22;4135;49.184;9.722;2022-12-07T09:06:47;14.80;48.70
8188;DHT22;4135;49.184;9.722;2022-12-07T09:09:17;14.80;48.70
8188;DHT22;4135;49.184;9.722;2022-12-07T09:11:47;14.80;48.90
8188;DHT22;4135;49.184;9.722;2022-12-07T09:14:16;14.80;48.80
8188;DHT22;4135;49.184;9.722;2022-12-07T09:16:46;15.20;49.10
8188;DHT22;4135;49.184;9.722;2022-12-07T09:19:16;14.80;48.60
8188;DHT22;4135;49.184;9.722;2022-12-07T09:21:45;14.80;48.50
8188;DHT22;4135;49.184;9.722;2022-12-07T09:24:15;14.80;49.20
8188;DHT22;4135;49.184;9.722;2022-12-07T09:26:44;14.80;48.60
8188;DHT22;4135;49.184;9.722;2022-12-07T09:29:14;14.80;48.70
8188;DHT22;4135;49.184;9.722;2022-12-07T09:31:43;14.80;48.60
8188;DHT22;4135;49.184;9.722;2022-12-07T09:34:13;14.80;48.50
8188;DHT22;4135;49.184;9.722;2022-12-07T09:36:43;14.80;48.50
8188;DHT22;4135;49.184;9.722;2022-12-07T09:39:12;14.80;48.40
8188;DHT22;4135;49.184;9.722;2022-12-07T09:41:43;14.80;48.40
8188;DHT22;4135;49.184;9.722;2022-12-07T09:44:20;14.80;48.60
8188;DHT22;4135;49.184;9.722;2022-12-07T09:46:51;14.90;48.80
8188;DHT22;4135;49.184;9.722;2022-12-07T09:49:23;14.80;48.60
8188;DHT22;4135;49.184;9.722;2022-12-07T09:52:18;14.80;48.50
8188;DHT22;4135;49.184;9.722;2022-12-07T09:54:50;14.90;48.70
8188;DHT22;4135;49.184;9.722;2022-12-07T09:57:29;14.90;48.70
8188;DHT22;4135;49.184;9.722;2022-12-07T10:00:05;14.90;48.80
8188;DHT22;4135;49.184;9.722;2022-12-07T10:02:41;14.90;48.70
8188;DHT22;4135;49.184;9.722;2022-12-07T10:05:25;15.00;48.60
8188;DHT22;4135;49.184;9.722;2022-12-07T10:07:55;14.90;48.50
8188;DHT22;4135;49.184;9.722;2022-12-07T10:10:31;14.90;48.50
8188;DHT22;4135;49.184;9.722;2022-12-07T10:13:06;14.90;48.60
8188;DHT22;4135;49.184;9.722;2022-12-07T10:15:52;14.90;48.60
8188;DHT22;4135;49.184;9.722;2022-12-07T10:18:35;14.90;48.40
8188;DHT22;4135;49.184;9.722;2022-12-07T10:21:23;14.90;48.40
8188;DHT22;4135;49.184;9.722;2022-12-07T10:29:22;14.90;48.40
8188;DHT22;4135;49.184;9.722;2022-12-07T10:32:45;14.90;48.30
8188;DHT22;4135;49.184;9.722;2022-12-07T10:35:27;14.90;48.20
8188;DHT22;4135;49.184;9.722;2022-12-07T10:37:59;14.90;48.30
8188;DHT22;4135;49.184;9.722;2022-12-07T10:40:32;14.90;48.40
8188;DHT22;4135;49.184;9.722;2022-12-07T10:48:33;14.90;48.50
8188;DHT22;4135;49.184;9.722;2022-12-07T10:56:51;14.90;48.40
8188;DHT22;4135;49.184;9.722;2022-12-07T11:08:39;14.90;48.20
8188;DHT22;4135;49.184;9.722;2022-12-07T11:17:02;14.90;48.20
8188;DHT22;4135;49.184;9.722;2022-12-07T11:25:24;14.90;48.30
8188;DHT22;4135;49.184;9.722;2022-12-07T11:31:11;14.90;48.30
8188;DHT22;4135;49.184;9.722;2022-12-07T11:36:50;14.90;48.20
8188;DHT22;4135;49.184;9.722;2022-12-07T11:39:35;14.90;48.20
8188;DHT22;4135;49.184;9.722;2022-12-07T11:42:16;14.90;48.10
8188;DHT22;4135;49.184;9.722;2022-12-07T11:45:34;14.90;48.20
8188;DHT22;4135;49.184;9.722;2022-12-07T11:50:58;14.90;48.30
8188;DHT22;4135;49.184;9.722;2022-12-07T11:53:37;14.90;48.40
8188;DHT22;4135;49.184;9.722;2022-12-07T11:56:09;14.90;48.10
8188;DHT22;4135;49.184;9.722;2022-12-07T12:03:47;14.90;48.10
8188;DHT22;4135;49.184;9.722;2022-12-07T12:06:17;14.90;48.20
8188;DHT22;4135;49.184;9.722;2022-12-07T12:27:57;14.90;48.30
8188;DHT22;4135;49.184;9.722;2022-12-07T12:30:35;14.90;48.20
8188;DHT22;4135;49.184;9.722;2022-12-07T12:33:14;14.90;48.10
8188;DHT22;4135;49.184;9.722;2022-12-07T12:35:44;14.90;48.10
8188;DHT22;4135;49.184;9.722;2022-12-07T12:39:07;14.90;48.20
8188;DHT22;4135;49.184;9.722;2022-12-07T12:51:51;14.90;48.20
8188;DHT22;4135;49.184;9.722;2022-12-07T13:02:35;14.90;47.90
8188;DHT22;4135;49.184;9.722;2022-12-07T13:15:52;14.90;48.00
8188;DHT22;4135;49.184;9.722;2022-12-07T13:21:43;14.90;47.90
8188;DHT22;4135;49.184;9.722;2022-12-07T13:24:12;14.90;47.90
8188;DHT22;4135;49.184;9.722;2022-12-07T13:26:42;14.90;48.00
8188;DHT22;4135;49.184;9.722;2022-12-07T13:29:18;14.90;48.00
8188;DHT22;4135;49.184;9.722;2022-12-07T13:31:52;14.90;48.10
8188;DHT22;4135;49.184;9.722;2022-12-07T13:34:35;14.90;48.00
8188;DHT22;4135;49.184;9.722;2022-12-07T13:37:13;14.90;48.10
8188;DHT22;4135;49.184;9.722;2022-12-07T13:45:13;14.90;47.90
8188;DHT22;4135;49.184;9.722;2022-12-07T13:47:53;14.90;47.90
8188;DHT22;4135;49.184;9.722;2022-12-07T13:50:26;14.90;48.10
8188;DHT22;4135;49.184;9.722;2022-12-07T13:53:00;14.90;48.20
8188;DHT22;4135;49.184;9.722;2022-12-07T13:55:30;14.90;48.00
8188;DHT22;4135;49.184;9.722;2022-12-07T13:58:00;15.00;48.00
8188;DHT22;4135;49.184;9.722;2022-12-07T14:00:29;14.90;48.10
8188;DHT22;4135;49.184;9.722;2022-12-07T14:03:41;15.00;48.30
8188;DHT22;4135;49.184;9.722;2022-12-07T14:08:34;15.00;47.90
8188;DHT22;4135;49.184;9.722;2022-12-07T14:11:04;14.90;47.80
8188;DHT22;4135;49.184;9.722;2022-12-07T14:13:50;14.90;47.80
8188;DHT22;4135;49.184;9.722;2022-12-07T14:16:30;15.00;47.90
8188;DHT22;4135;49.184;9.722;2022-12-07T14:19:05;14.90;47.90
8188;DHT22;4135;49.184;9.722;2022-12-07T14:21:35;14.90;48.10
8188;DHT22;4135;49.184;9.722;2022-12-07T14:24:16;14.90;48.00
8188;DHT22;4135;49.184;9.722;2022-12-07T14:26:52;14.90;48.00
8188;DHT22;4135;49.184;9.722;2022-12-07T14:31:54;14.90;47.90
8188;DHT22;4135;49.184;9.722;2022-12-07T14:34:24;14.90;47.80
8188;DHT22;4135;49.184;9.722;2022-12-07T14:36:54;14.90;48.00
8188;DHT22;4135;49.184;9.722;2022-12-07T14:39:23;14.90;47.90
8188;DHT22;4135;49.184;9.722;2022-12-07T14:41:53;14.90;47.90
8188;DHT22;4135;49.184;9.722;2022-12-07T14:44:23;14.90;47.90
8188;DHT22;4135;49.184;9.722;2022-12-07T14:46:52;14.90;48.00
8188;DHT22;4135;49.184;9.722;2022-12-07T14:49:22;14.90;48.00
8188;DHT22;4135;49.184;9.722;2022-12-07T14:51:52;14.90;47.90
8188;DHT22;4135;49.184;9.722;2022-12-07T14:54:26;14.90;47.90
8188;DHT22;4135;49.184;9.722;2022-12-07T14:56:58;14.90;48.10
8188;DHT22;4135;49.184;9.722;2022-12-07T14:59:28;14.90;47.90
8188;DHT22;4135;49.184;9.722;2022-12-07T15:01:57;14.90;48.00
8188;DHT22;4135;49.184;9.722;2022-12-07T15:04:27;14.90;48.00
8188;DHT22;4135;49.184;9.722;2022-12-07T15:06:58;14.90;47.90
8188;DHT22;4135;49.184;9.722;2022-12-07T15:09:28;14.90;48.10
8188;DHT22;4135;49.184;9.722;2022-12-07T15:11:58;14.90;48.20
8188;DHT22;4135;49.184;9.722;2022-12-07T15:14:28;14.90;48.20
8188;DHT22;4135;49.184;9.722;2022-12-07T15:16:57;14.90;48.10
8188;DHT22;4135;49.184;9.722;2022-12-07T15:19:27;14.90;48.10
8188;DHT22;4135;49.184;9.722;2022-12-07T15:21:57;14.90;48.20
8188;DHT22;4135;49.184;9.722;2022-12-07T15:24:29;14.90;48.20
8188;DHT22;4135;49.184;9.722;2022-12-07T15:26:59;14.90;48.10
8188;DHT22;4135;49.184;9.722;2022-12-07T15:29:28;14.90;48.10
8188;DHT22;4135;49.184;9.722;2022-12-07T15:31:58;14.90;48.20
8188;DHT22;4135;49.184;9.722;2022-12-07T15:34:28;14.90;48.10
8188;DHT22;4135;49.184;9.722;2022-12-07T15:36:57;14.90;48.20
8188;DHT22;4135;49.184;9.722;2022-12-07T15:39:27;14.90;48.10
8188;DHT22;4135;49.184;9.722;2022-12-07T15:41:56;14.90;48.10
8188;DHT22;4135;49.184;9.722;2022-12-07T15:44:26;14.90;48.20
8188;DHT22;4135;49.184;9.722;2022-12-07T15:47:14;14.90;48.20
8188;DHT22;4135;49.184;9.722;2022-12-07T15:49:44;14.90;48.20
8188;DHT22;4135;49.184;9.722;2022-12-07T15:52:13;14.90;48.20
8188;DHT22;4135;49.184;9.722;2022-12-07T15:54:43;14.90;48.10
8188;DHT22;4135;49.184;9.722;2022-12-07T15:57:13;14.90;48.10
8188;DHT22;4135;49.184;9.722;2022-12-07T15:59:42;14.90;48.10
8188;DHT22;4135;49.184;9.722;2022-12-07T16:02:12;14.90;48.10
8188;DHT22;4135;49.184;9.722;2022-12-07T16:04:42;14.90;48.10
8188;DHT22;4135;49.184;9.722;2022-12-07T16:07:11;14.90;48.10
8188;DHT22;4135;49.184;9.722;2022-12-07T16:09:44;14.90;48.10
8188;DHT22;4135;49.184;9.722;2022-12-07T16:12:14;14.90;48.70
8188;DHT22;4135;49.184;9.722;2022-12-07T16:14:43;14.90;48.20
8188;DHT22;4135;49.184;9.722;2022-12-07T16:17:13;14.90;48.10
8188;DHT22;4135;49.184;9.722;2022-12-07T16:19:42;14.90;48.20
8188;DHT22;4135;49.184;9.722;2022-12-07T16:22:12;14.90;48.10
8188;DHT22;4135;49.184;9.722;2022-12-07T16:24:42;14.90;48.20
8188;DHT22;4135;49.184;9.722;2022-12-07T16:27:11;14.80;48.10
8188;DHT22;4135;49.184;9.722;2022-12-07T16:29:41;14.90;48.20
8188;DHT22;4135;49.184;9.722;2022-12-07T16:32:10;14.80;48.20
8188;DHT22;4135;49.184;9.722;2022-12-07T16:34:40;14.90;48.20
8188;DHT22;4135;49.184;9.722;2022-12-07T16:37:09;14.80;48.20
8188;DHT22;4135;49.184;9.722;2022-12-07T16:39:39;14.80;48.30
8188;DHT22;4135;49.184;9.722;2022-12-07T16:42:08;14.80;48.20
8188;DHT22;4135;49.184;9.722;2022-12-07T16:44:38;14.80;48.20
8188;DHT22;4135;49.184;9.722;2022-12-07T16:47:08;14.80;48.20
8188;DHT22;4135;49.184;9.722;2022-12-07T16:49:37;14.80;48.20
8188;DHT22;4135;49.184;9.722;2022-12-07T16:52:07;14.70;48.20
8188;DHT22;4135;49.184;9.722;2022-12-07T16:54:36;14.70;48.20
8188;DHT22;4135;49.184;9.722;2022-12-07T16:57:06;14.70;48.80
8188;DHT22;4135;49.184;9.722;2022-12-07T16:59:35;14.80;48.40
8188;DHT22;4135;49.184;9.722;2022-12-07T17:02:05;14.70;48.20
8188;DHT22;4135;49.184;9.722;2022-12-07T17:04:35;14.70;48.20
8188;DHT22;4135;49.184;9.722;2022-12-07T17:07:07;14.70;48.20
8188;DHT22;4135;49.184;9.722;2022-12-07T17:09:37;14.70;48.20
8188;DHT22;4135;49.184;9.722;2022-12-07T17:12:07;14.70;48.20
8188;DHT22;4135;49.184;9.722;2022-12-07T17:14:36;14.70;48.20
8188;DHT22;4135;49.184;9.722;2022-12-07T17:17:24;14.70;48.20
8188;DHT22;4135;49.184;9.722;2022-12-07T17:19:54;14.70;48.20
8188;DHT22;4135;49.184;9.722;2022-12-07T17:22:23;14.60;48.20
8188;DHT22;4135;49.184;9.722;2022-12-07T17:24:53;14.60;48.20
8188;DHT22;4135;49.184;9.722;2022-12-07T17:27:22;14.60;48.30
8188;DHT22;4135;49.184;9.722;2022-12-07T17:29:52;14.60;48.20
8188;DHT22;4135;49.184;9.722;2022-12-07T17:32:21;14.60;48.20
8188;DHT22;4135;49.184;9.722;2022-12-07T17:34:51;13.50;47.20
8188;DHT22;4135;49.184;9.722;2022-12-07T17:37:21;14.60;48.20
8188;DHT22;4135;49.184;9.722;2022-12-07T17:39:51;14.60;48.20
8188;DHT22;4135;49.184;9.722;2022-12-07T17:42:21;14.60;48.30
8188;DHT22;4135;49.184;9.722;2022-12-07T17:45:08;14.60;48.30
8188;DHT22;4135;49.184;9.722;2022-12-07T17:47:39;14.60;48.30
8188;DHT22;4135;49.184;9.722;2022-12-07T17:50:10;14.60;48.30
8188;DHT22;4135;49.184;9.722;2022-12-07T17:52:40;14.60;48.30
8188;DHT22;4135;49.184;9.722;2022-12-07T17:55:28;14.60;48.30
8188;DHT22;4135;49.184;9.722;2022-12-07T17:57:57;14.60;48.30
8188;DHT22;4135;49.184;9.722;2022-12-07T18:00:27;14.60;48.30
8188;DHT22;4135;49.184;9.722;2022-12-07T18:02:56;14.60;48.30
8188;DHT22;4135;49.184;9.722;2022-12-07T18:05:26;14.60;48.30
8188;DHT22;4135;49.184;9.722;2022-12-07T18:07:55;14.50;48.30
8188;DHT22;4135;49.184;9.722;2022-12-07T18:10:25;14.60;48.30
8188;DHT22;4135;49.184;9.722;2022-12-07T18:12:54;14.50;48.20
8188;DHT22;4135;49.184;9.722;2022-12-07T18:15:44;14.50;48.20
8188;DHT22;4135;49.184;9.722;2022-12-07T18:18:13;14.50;48.20
8188;DHT22;4135;49.184;9.722;2022-12-07T18:20:43;14.60;48.30
8188;DHT22;4135;49.184;9.722;2022-12-07T18:23:12;14.50;48.20
8188;DHT22;4135;49.184;9.722;2022-12-07T18:25:47;14.50;48.20
8188;DHT22;4135;49.184;9.722;2022-12-07T18:28:17;14.50;48.20
8188;DHT22;4135;49.184;9.722;2022-12-07T18:30:46;14.50;48.10
8188;DHT22;4135;49.184;9.722;2022-12-07T18:33:20;14.50;48.20
8188;DHT22;4135;49.184;9.722;2022-12-07T18:35:49;14.50;48.80
8188;DHT22;4135;49.184;9.722;2022-12-07T18:38:19;14.50;48.10
8188;DHT22;4135;49.184;9.722;2022-12-07T18:40:48;14.50;48.20
8188;DHT22;4135;49.184;9.722;2022-12-07T18:43:18;14.50;48.20
8188;DHT22;4135;49.184;9.722;2022-12-07T18:45:47;14.50;48.10
8188;DHT22;4135;49.184;9.722;2022-12-07T18:48:19;14.50;48.20
8188;DHT22;4135;49.184;9.722;2022-12-07T18:51:04;14.50;48.20
8188;DHT22;4135;49.184;9.722;2022-12-07T18:53:34;14.40;48.10
8188;DHT22;4135;49.184;9.722;2022-12-07T18:56:11;14.40;48.10
8188;DHT22;4135;49.184;9.722;2022-12-07T18:58:42;14.40;48.00